sensor_id;sensor_type;location;lat;lon;timestamp;temperature;humidity
17619;DHT22;8928;51.678;6.074;2024-01-15T00:01:50;0.90;7.60
17619;DHT22;8928;51.678;6.074;2024-01-15T00:04:37;0.90;17.90
17619;DHT22;8928;51.678;6.074;2024-01-15T00:07:24;0.90;3.90
17619;DHT22;8928;51.678;6.074;2024-01-15T00:10:11;0.80;1.00
17619;DHT22;8928;51.678;6.074;2024-01-15T00:13:00;0.70;1.00
17619;DHT22;8928;51.678;6.074;2024-01-15T00:15:47;0.70;1.00
17619;DHT22;8928;51.678;6.074;2024-01-15T00:18:34;0.60;1.00
17619;DHT22;8928;51.678;6.074;2024-01-15T00:21:21;0.70;1.00
17619;DHT22;8928;51.678;6.074;2024-01-15T00:24:09;0.60;30.80
17619;DHT22;8928;51.678;6.074;2024-01-15T00:26:56;0.70;34.20
17619;DHT22;8928;51.678;6.074;2024-01-15T00:29:44;0.60;1.30
17619;DHT22;8928;51.678;6.074;2024-01-15T00:32:31;0.40;1.00
17619;DHT22;8928;51.678;6.074;2024-01-15T00:35:18;0.40;43.40
17619;DHT22;8928;51.678;6.074;2024-01-15T00:38:05;0.40;99.90
17619;DHT22;8928;51.678;6.074;2024-01-15T00:40:53;0.50;1.00
17619;DHT22;8928;51.678;6.074;2024-01-15T00:43:40;0.50;1.00
17619;DHT22;8928;51.678;6.074;2024-01-15T00:46:28;0.40;1.00
17619;DHT22;8928;51.678;6.074;2024-01-15T00:49:16;0.30;1.00
17619;DHT22;8928;51.678;6.074;2024-01-15T00:52:03;0.20;1.00
17619;DHT22;8928;51.678;6.074;2024-01-15T00:54:51;0.20;99.90
17619;DHT22;8928;51.678;6.074;2024-01-15T00:57:38;0.20;99.90
17619;DHT22;8928;51.678;6.074;2024-01-15T01:00:25;0.30;99.90
17619;DHT22;8928;51.678;6.074;2024-01-15T01:03:14;0.30;99.90
17619;DHT22;8928;51.678;6.074;2024-01-15T01:06:01;0.40;1.00
17619;DHT22;8928;51.678;6.074;2024-01-15T01:08:48;0.60;99.90
17619;DHT22;8928;51.678;6.074;2024-01-15T01:11:35;0.60;1.00
17619;DHT22;8928;51.678;6.074;2024-01-15T01:14:22;0.70;1.00
17619;DHT22;8928;51.678;6.074;2024-01-15T01:17:09;0.80;1.00
17619;DHT22;8928;51.678;6.074;2024-01-15T01:19:57;0.80;1.00
17619;DHT22;8928;51.678;6.074;2024-01-15T01:22:44;0.80;99.90
17619;DHT22;8928;51.678;6.074;2024-01-15T01:25:31;0.80;1.00
17619;DHT22;8928;51.678;6.074;2024-01-15T01:28:18;0.80;99.90
17619;DHT22;8928;51.678;6.074;2024-01-15T01:31:05;0.70;1.00
17619;DHT22;8928;51.678;6.074;2024-01-15T01:33:54;0.60;99.90
17619;DHT22;8928;51.678;6.074;2024-01-15T01:36:42;0.40;99.90
17619;DHT22;8928;51.678;6.074;2024-01-15T01:39:29;0.30;99.90
17619;DHT22;8928;51.678;6.074;2024-01-15T01:42:16;0.30;99.90
17619;DHT22;8928;51.678;6.074;2024-01-15T01:45:04;0.30;1.00
17619;DHT22;8928;51.678;6.074;2024-01-15T01:47:52;0.30;1.00
17619;DHT22;8928;51.678;6.074;2024-01-15T01:50:39;0.20;1.00
17619;DHT22;8928;51.678;6.074;2024-01-15T01:53:28;0.10;1.00
17619;DHT22;8928;51.678;6.074;2024-01-15T01:56:15;0.20;99.90
17619;DHT22;8928;51.678;6.074;2024-01-15T01:59:04;0.30;1.00
17619;DHT22;8928;51.678;6.074;2024-01-15T02:01:51;0.40;1.00
17619;DHT22;8928;51.678;6.074;2024-01-15T02:04:39;0.50;99.90
17619;DHT22;8928;51.678;6.074;2024-01-15T02:07:27;0.40;1.00
17619;DHT22;8928;51.678;6.074;2024-01-15T02:10:15;0.40;1.00
17619;DHT22;8928;51.678;6.074;2024-01-15T02:13:03;0.40;1.00
17619;DHT22;8928;51.678;6.074;2024-01-15T02:15:50;0.40;99.90
17619;DHT22;8928;51.678;6.074;2024-01-15T02:18:40;0.30;1.00
17619;DHT22;8928;51.678;6.074;2024-01-15T02:21:27;0.10;1.00
17619;DHT22;8928;51.678;6.074;2024-01-15T02:24:17;0.10;1.00
17619;DHT22;8928;51.678;6.074;2024-01-15T02:27:04;0.00;1.00
17619;DHT22;8928;51.678;6.074;2024-01-15T02:29:51;0.00;67.60
17619;DHT22;8928;51.678;6.074;2024-01-15T02:32:39;-0.10;69.30
17619;DHT22;8928;51.678;6.074;2024-01-15T02:35:27;-0.10;1.00
17619;DHT22;8928;51.678;6.074;2024-01-15T02:38:13;-0.10;69.60
17619;DHT22;8928;51.678;6.074;2024-01-15T02:41:02;-0.20;31.70
17619;DHT22;8928;51.678;6.074;2024-01-15T02:43:49;-0.20;1.00
17619;DHT22;8928;51.678;6.074;2024-01-15T02:46:36;-0.30;1.00
17619;DHT22;8928;51.678;6.074;2024-01-15T02:49:23;-0.20;1.00
17619;DHT22;8928;51.678;6.074;2024-01-15T02:52:10;-0.30;1.00
17619;DHT22;8928;51.678;6.074;2024-01-15T02:54:57;-0.30;1.00
17619;DHT22;8928;51.678;6.074;2024-01-15T02:57:46;-0.20;99.90
17619;DHT22;8928;51.678;6.074;2024-01-15T03:00:33;-0.10;99.90
17619;DHT22;8928;51.678;6.074;2024-01-15T03:03:20;-0.10;99.90
17619;DHT22;8928;51.678;6.074;2024-01-15T03:06:07;-0.10;99.90
17619;DHT22;8928;51.678;6.074;2024-01-15T03:08:54;-0.10;99.90
17619;DHT22;8928;51.678;6.074;2024-01-15T03:11:41;-0.20;1.00
17619;DHT22;8928;51.678;6.074;2024-01-15T03:14:30;-0.30;1.00
17619;DHT22;8928;51.678;6.074;2024-01-15T03:17:17;-0.20;32.80
17619;DHT22;8928;51.678;6.074;2024-01-15T03:20:05;-0.20;99.90
17619;DHT22;8928;51.678;6.074;2024-01-15T03:22:52;-0.20;99.90
17619;DHT22;8928;51.678;6.074;2024-01-15T03:25:39;-0.30;1.00
17619;DHT22;8928;51.678;6.074;2024-01-15T03:28:26;-0.30;1.00
17619;DHT22;8928;51.678;6.074;2024-01-15T03:31:14;-0.30;1.00
17619;DHT22;8928;51.678;6.074;2024-01-15T03:34:01;-0.30;99.90
17619;DHT22;8928;51.678;6.074;2024-01-15T03:36:49;-0.20;1.00
17619;DHT22;8928;51.678;6.074;2024-01-15T03:39:36;-0.20;1.00
17619;DHT22;8928;51.678;6.074;2024-01-15T03:42:23;-0.20;1.00
17619;DHT22;8928;51.678;6.074;2024-01-15T03:45:10;-0.20;1.00
17619;DHT22;8928;51.678;6.074;2024-01-15T03:47:58;-0.10;99.90
17619;DHT22;8928;51.678;6.074;2024-01-15T03:50:45;-0.10;99.90
17619;DHT22;8928;51.678;6.074;2024-01-15T03:53:32;-0.20;99.90
17619;DHT22;8928;51.678;6.074;2024-01-15T03:56:19;-0.20;99.90
17619;DHT22;8928;51.678;6.074;2024-01-15T03:59:06;-0.10;99.90
17619;DHT22;8928;51.678;6.074;2024-01-15T04:01:53;0.10;99.90
17619;DHT22;8928;51.678;6.074;2024-01-15T04:04:42;0.10;99.90
17619;DHT22;8928;51.678;6.074;2024-01-15T04:07:29;0.20;99.90
17619;DHT22;8928;51.678;6.074;2024-01-15T04:10:16;0.00;99.90
17619;DHT22;8928;51.678;6.074;2024-01-15T04:13:03;0.00;1.00
17619;DHT22;8928;51.678;6.074;2024-01-15T04:15:50;0.00;99.90
17619;DHT22;8928;51.678;6.074;2024-01-15T04:18:37;-0.10;99.90
17619;DHT22;8928;51.678;6.074;2024-01-15T04:21:26;-0.20;64.20
17619;DHT22;8928;51.678;6.074;2024-01-15T04:24:13;-0.20;99.90
17619;DHT22;8928;51.678;6.074;2024-01-15T04:27:00;-0.20;99.90
17619;DHT22;8928;51.678;6.074;2024-01-15T04:29:47;-0.20;99.90
17619;DHT22;8928;51.678;6.074;2024-01-15T04:32:34;-0.20;99.90
17619;DHT22;8928;51.678;6.074;2024-01-15T04:35:21;-0.20;99.90
17619;DHT22;8928;51.678;6.074;2024-01-15T04:38:10;-0.10;1.00
17619;DHT22;8928;51.678;6.074;2024-01-15T04:40:57;-0.10;99.90
17619;DHT22;8928;51.678;6.074;2024-01-15T04:43:44;0.00;99.90
17619;DHT22;8928;51.678;6.074;2024-01-15T04:46:31;0.00;1.00
17619;DHT22;8928;51.678;6.074;2024-01-15T04:49:18;-0.10;99.90
17619;DHT22;8928;51.678;6.074;2024-01-15T04:52:05;-0.10;99.90
17619;DHT22;8928;51.678;6.074;2024-01-15T04:54:54;-0.20;99.90
17619;DHT22;8928;51.678;6.074;2024-01-15T04:57:41;-0.10;99.90
17619;DHT22;8928;51.678;6.074;2024-01-15T05:00:28;-0.10;99.90
17619;DHT22;8928;51.678;6.074;2024-01-15T05:03:15;-0.20;99.90
17619;DHT22;8928;51.678;6.074;2024-01-15T05:06:02;-0.10;99.90
17619;DHT22;8928;51.678;6.074;2024-01-15T05:08:49;-0.10;99.90
17619;DHT22;8928;51.678;6.074;2024-01-15T05:11:37;0.00;99.90
17619;DHT22;8928;51.678;6.074;2024-01-15T05:14:24;0.20;99.90
17619;DHT22;8928;51.678;6.074;2024-01-15T05:17:11;0.20;99.90
17619;DHT22;8928;51.678;6.074;2024-01-15T05:19:58;0.30;99.90
17619;DHT22;8928;51.678;6.074;2024-01-15T05:22:45;0.30;99.90
17619;DHT22;8928;51.678;6.074;2024-01-15T05:25:33;0.30;99.90
17619;DHT22;8928;51.678;6.074;2024-01-15T05:28:21;0.40;99.90
17619;DHT22;8928;51.678;6.074;2024-01-15T05:31:08;0.40;37.90
17619;DHT22;8928;51.678;6.074;2024-01-15T05:33:56;0.40;1.00
17619;DHT22;8928;51.678;6.074;2024-01-15T05:36:43;0.50;1.00
17619;DHT22;8928;51.678;6.074;2024-01-15T05:39:33;0.50;1.00
17619;DHT22;8928;51.678;6.074;2024-01-15T05:42:20;0.40;1.00
17619;DHT22;8928;51.678;6.074;2024-01-15T05:45:09;0.40;1.00
17619;DHT22;8928;51.678;6.074;2024-01-15T05:47:56;0.40;1.00
17619;DHT22;8928;51.678;6.074;2024-01-15T05:50:43;0.40;1.00
17619;DHT22;8928;51.678;6.074;2024-01-15T05:53:30;0.40;1.00
17619;DHT22;8928;51.678;6.074;2024-01-15T05:56:17;0.40;1.00
17619;DHT22;8928;51.678;6.074;2024-01-15T05:59:04;0.40;1.00
17619;DHT22;8928;51.678;6.074;2024-01-15T06:01:52;0.30;1.00
17619;DHT22;8928;51.678;6.074;2024-01-15T06:04:39;0.30;1.00
17619;DHT22;8928;51.678;6.074;2024-01-15T06:07:26;0.20;1.00
17619;DHT22;8928;51.678;6.074;2024-01-15T06:10:14;0.20;1.00
17619;DHT22;8928;51.678;6.074;2024-01-15T06:13:01;0.20;1.00
17619;DHT22;8928;51.678;6.074;2024-01-15T06:15:48;0.30;1.00
17619;DHT22;8928;51.678;6.074;2024-01-15T06:18:36;0.30;1.00
17619;DHT22;8928;51.678;6.074;2024-01-15T06:21:23;0.40;1.00
17619;DHT22;8928;51.678;6.074;2024-01-15T06:24:10;0.40;1.00
17619;DHT22;8928;51.678;6.074;2024-01-15T06:26:59;0.40;1.00
17619;DHT22;8928;51.678;6.074;2024-01-15T06:29:46;0.40;1.00
17619;DHT22;8928;51.678;6.074;2024-01-15T06:32:33;0.50;1.00
17619;DHT22;8928;51.678;6.074;2024-01-15T06:35:22;0.50;1.00
17619;DHT22;8928;51.678;6.074;2024-01-15T06:38:09;0.50;1.00
17619;DHT22;8928;51.678;6.074;2024-01-15T06:40:56;0.60;1.00
17619;DHT22;8928;51.678;6.074;2024-01-15T06:43:43;0.50;1.00
17619;DHT22;8928;51.678;6.074;2024-01-15T06:46:30;0.40;1.00
17619;DHT22;8928;51.678;6.074;2024-01-15T06:49:17;0.40;1.00
17619;DHT22;8928;51.678;6.074;2024-01-15T06:52:06;0.40;1.00
17619;DHT22;8928;51.678;6.074;2024-01-15T06:54:53;0.40;1.00
17619;DHT22;8928;51.678;6.074;2024-01-15T06:57:40;0.40;1.00
17619;DHT22;8928;51.678;6.074;2024-01-15T07:00:27;0.40;1.00
17619;DHT22;8928;51.678;6.074;2024-01-15T07:03:14;0.50;1.00
17619;DHT22;8928;51.678;6.074;2024-01-15T07:06:02;0.50;1.00
17619;DHT22;8928;51.678;6.074;2024-01-15T07:08:50;0.50;1.00
17619;DHT22;8928;51.678;6.074;2024-01-15T07:11:37;0.50;1.00
17619;DHT22;8928;51.678;6.074;2024-01-15T07:14:24;0.50;1.00
17619;DHT22;8928;51.678;6.074;2024-01-15T07:17:12;0.50;1.00
17619;DHT22;8928;51.678;6.074;2024-01-15T07:19:59;0.60;1.00
17619;DHT22;8928;51.678;6.074;2024-01-15T07:22:46;0.50;1.00
17619;DHT22;8928;51.678;6.074;2024-01-15T07:25:34;0.50;1.00
17619;DHT22;8928;51.678;6.074;2024-01-15T07:28:22;0.50;1.00
17619;DHT22;8928;51.678;6.074;2024-01-15T07:31:09;0.60;1.00
17619;DHT22;8928;51.678;6.074;2024-01-15T07:33:56;0.60;1.00
17619;DHT22;8928;51.678;6.074;2024-01-15T07:36:44;0.60;1.00
17619;DHT22;8928;51.678;6.074;2024-01-15T07:39:31;0.60;1.00
17619;DHT22;8928;51.678;6.074;2024-01-15T07:42:19;0.60;1.00
17619;DHT22;8928;51.678;6.074;2024-01-15T07:45:06;0.50;1.00
17619;DHT22;8928;51.678;6.074;2024-01-15T07:47:53;0.30;1.00
17619;DHT22;8928;51.678;6.074;2024-01-15T07:50:40;0.30;1.00
17619;DHT22;8928;51.678;6.074;2024-01-15T07:53:27;0.20;1.00
17619;DHT22;8928;51.678;6.074;2024-01-15T07:56:15;0.20;1.00
17619;DHT22;8928;51.678;6.074;2024-01-15T07:59:04;0.10;1.00
17619;DHT22;8928;51.678;6.074;2024-01-15T08:01:51;0.10;1.00
17619;DHT22;8928;51.678;6.074;2024-01-15T08:04:38;0.00;1.00
17619;DHT22;8928;51.678;6.074;2024-01-15T08:07:25;0.00;99.90
17619;DHT22;8928;51.678;6.074;2024-01-15T08:10:12;0.00;99.90
17619;DHT22;8928;51.678;6.074;2024-01-15T08:13:00;-0.10;99.90
17619;DHT22;8928;51.678;6.074;2024-01-15T08:15:48;0.00;99.90
17619;DHT22;8928;51.678;6.074;2024-01-15T08:18:36;0.00;1.00
17619;DHT22;8928;51.678;6.074;2024-01-15T08:21:23;0.10;1.00
17619;DHT22;8928;51.678;6.074;2024-01-15T08:24:10;0.10;1.00
17619;DHT22;8928;51.678;6.074;2024-01-15T08:26:57;0.20;1.00
17619;DHT22;8928;51.678;6.074;2024-01-15T08:29:44;0.20;1.00
17619;DHT22;8928;51.678;6.074;2024-01-15T08:32:32;0.20;1.00
17619;DHT22;8928;51.678;6.074;2024-01-15T08:35:22;0.30;1.00
17619;DHT22;8928;51.678;6.074;2024-01-15T08:38:10;0.20;99.90
17619;DHT22;8928;51.678;6.074;2024-01-15T08:40:57;0.20;99.90
17619;DHT22;8928;51.678;6.074;2024-01-15T08:43:46;0.20;1.00
17619;DHT22;8928;51.678;6.074;2024-01-15T08:46:33;0.30;1.00
17619;DHT22;8928;51.678;6.074;2024-01-15T08:49:21;0.30;1.00
17619;DHT22;8928;51.678;6.074;2024-01-15T08:52:08;0.40;99.90
17619;DHT22;8928;51.678;6.074;2024-01-15T08:54:56;0.40;99.90
17619;DHT22;8928;51.678;6.074;2024-01-15T08:57:43;0.50;1.00
17619;DHT22;8928;51.678;6.074;2024-01-15T09:00:30;0.50;1.00
17619;DHT22;8928;51.678;6.074;2024-01-15T09:03:17;0.50;1.00
17619;DHT22;8928;51.678;6.074;2024-01-15T09:06:06;0.50;1.00
17619;DHT22;8928;51.678;6.074;2024-01-15T09:08:53;0.50;99.90
17619;DHT22;8928;51.678;6.074;2024-01-15T09:11:40;0.50;1.00
17619;DHT22;8928;51.678;6.074;2024-01-15T09:14:27;0.50;1.00
17619;DHT22;8928;51.678;6.074;2024-01-15T09:17:14;0.50;99.90
17619;DHT22;8928;51.678;6.074;2024-01-15T09:20:02;0.50;1.00
17619;DHT22;8928;51.678;6.074;2024-01-15T09:22:51;0.60;99.90
17619;DHT22;8928;51.678;6.074;2024-01-15T09:25:38;0.60;99.90
17619;DHT22;8928;51.678;6.074;2024-01-15T09:28:26;0.60;99.90
17619;DHT22;8928;51.678;6.074;2024-01-15T09:31:13;0.60;99.90
17619;DHT22;8928;51.678;6.074;2024-01-15T09:34:00;0.70;1.00
17619;DHT22;8928;51.678;6.074;2024-01-15T09:36:48;0.70;99.90
17619;DHT22;8928;51.678;6.074;2024-01-15T09:39:36;0.70;1.00
17619;DHT22;8928;51.678;6.074;2024-01-15T09:42:25;0.60;1.00
17619;DHT22;8928;51.678;6.074;2024-01-15T09:45:12;0.60;1.00
17619;DHT22;8928;51.678;6.074;2024-01-15T09:48:00;0.60;1.00
17619;DHT22;8928;51.678;6.074;2024-01-15T09:50:47;0.60;1.00
17619;DHT22;8928;51.678;6.074;2024-01-15T09:53:35;0.60;1.00
17619;DHT22;8928;51.678;6.074;2024-01-15T09:56:25;0.60;1.00
17619;DHT22;8928;51.678;6.074;2024-01-15T09:59:14;0.60;1.00
17619;DHT22;8928;51.678;6.074;2024-01-15T10:02:03;0.60;1.00
17619;DHT22;8928;51.678;6.074;2024-01-15T10:04:51;0.50;1.00
17619;DHT22;8928;51.678;6.074;2024-01-15T10:07:38;0.40;1.00
17619;DHT22;8928;51.678;6.074;2024-01-15T10:10:26;0.50;1.00
17619;DHT22;8928;51.678;6.074;2024-01-15T10:13:15;0.60;6.70
17619;DHT22;8928;51.678;6.074;2024-01-15T10:16:02;0.60;11.30
17619;DHT22;8928;51.678;6.074;2024-01-15T10:18:49;0.90;1.00
17619;DHT22;8928;51.678;6.074;2024-01-15T10:21:37;1.20;81.10
17619;DHT22;8928;51.678;6.074;2024-01-15T10:24:24;1.10;99.90
17619;DHT22;8928;51.678;6.074;2024-01-15T10:27:11;1.10;1.00
17619;DHT22;8928;51.678;6.074;2024-01-15T10:30:00;1.10;1.00
17619;DHT22;8928;51.678;6.074;2024-01-15T10:32:57;1.30;1.00
17619;DHT22;8928;51.678;6.074;2024-01-15T10:35:45;1.60;1.00
17619;DHT22;8928;51.678;6.074;2024-01-15T10:38:32;1.90;1.00
17619;DHT22;8928;51.678;6.074;2024-01-15T10:41:19;1.60;99.90
17619;DHT22;8928;51.678;6.074;2024-01-15T10:44:06;1.30;1.00
17619;DHT22;8928;51.678;6.074;2024-01-15T10:46:55;1.00;1.00
17619;DHT22;8928;51.678;6.074;2024-01-15T10:49:44;0.90;1.00
17619;DHT22;8928;51.678;6.074;2024-01-15T10:52:32;0.70;21.70
17619;DHT22;8928;51.678;6.074;2024-01-15T10:55:20;0.80;99.90
17619;DHT22;8928;51.678;6.074;2024-01-15T10:58:08;1.00;19.20
17619;DHT22;8928;51.678;6.074;2024-01-15T11:00:55;1.10;1.00
17619;DHT22;8928;51.678;6.074;2024-01-15T11:03:44;1.20;26.20
17619;DHT22;8928;51.678;6.074;2024-01-15T11:06:41;1.30;40.40
17619;DHT22;8928;51.678;6.074;2024-01-15T11:09:29;1.40;99.90
17619;DHT22;8928;51.678;6.074;2024-01-15T11:12:17;1.50;77.40
17619;DHT22;8928;51.678;6.074;2024-01-15T11:15:05;1.40;99.90
17619;DHT22;8928;51.678;6.074;2024-01-15T11:17:59;1.30;99.90
17619;DHT22;8928;51.678;6.074;2024-01-15T11:24:05;1.10;1.00
17619;DHT22;8928;51.678;6.074;2024-01-15T11:26:52;1.10;1.00
17619;DHT22;8928;51.678;6.074;2024-01-15T11:29:40;1.10;1.00
17619;DHT22;8928;51.678;6.074;2024-01-15T11:32:33;1.30;99.90
17619;DHT22;8928;51.678;6.074;2024-01-15T11:35:21;1.50;1.00
17619;DHT22;8928;51.678;6.074;2024-01-15T11:38:11;1.80;1.00
17619;DHT22;8928;51.678;6.074;2024-01-15T11:41:00;2.20;1.00
17619;DHT22;8928;51.678;6.074;2024-01-15T11:43:47;2.20;1.00
17619;DHT22;8928;51.678;6.074;2024-01-15T11:46:39;2.30;1.00
17619;DHT22;8928;51.678;6.074;2024-01-15T11:49:46;2.30;1.00
17619;DHT22;8928;51.678;6.074;2024-01-15T11:52:38;1.90;6.40
17619;DHT22;8928;51.678;6.074;2024-01-15T11:55:27;1.80;1.00
17619;DHT22;8928;51.678;6.074;2024-01-15T11:58:16;1.60;1.00
17619;DHT22;8928;51.678;6.074;2024-01-15T12:01:03;1.60;1.00
17619;DHT22;8928;51.678;6.074;2024-01-15T12:03:50;1.60;1.00
17619;DHT22;8928;51.678;6.074;2024-01-15T12:06:38;1.60;1.00
17619;DHT22;8928;51.678;6.074;2024-01-15T12:09:25;1.60;1.00
17619;DHT22;8928;51.678;6.074;2024-01-15T12:12:20;1.50;1.00
17619;DHT22;8928;51.678;6.074;2024-01-15T12:15:10;1.50;1.00
17619;DHT22;8928;51.678;6.074;2024-01-15T12:17:59;1.40;1.00
17619;DHT22;8928;51.678;6.074;2024-01-15T12:20:46;1.50;1.00
17619;DHT22;8928;51.678;6.074;2024-01-15T12:23:33;1.60;1.00
17619;DHT22;8928;51.678;6.074;2024-01-15T12:26:21;1.80;1.00
17619;DHT22;8928;51.678;6.074;2024-01-15T12:29:08;1.80;1.00
17619;DHT22;8928;51.678;6.074;2024-01-15T12:31:56;1.70;1.00
17619;DHT22;8928;51.678;6.074;2024-01-15T12:34:44;1.60;1.00
17619;DHT22;8928;51.678;6.074;2024-01-15T12:37:31;1.40;1.00
17619;DHT22;8928;51.678;6.074;2024-01-15T12:40:19;1.40;1.00
17619;DHT22;8928;51.678;6.074;2024-01-15T12:43:06;1.40;1.00
17619;DHT22;8928;51.678;6.074;2024-01-15T12:45:53;1.40;1.00
17619;DHT22;8928;51.678;6.074;2024-01-15T12:48:42;1.50;1.00
17619;DHT22;8928;51.678;6.074;2024-01-15T12:51:29;1.70;1.00
17619;DHT22;8928;51.678;6.074;2024-01-15T12:54:16;1.70;1.00
17619;DHT22;8928;51.678;6.074;2024-01-15T12:57:03;1.70;1.00
17619;DHT22;8928;51.678;6.074;2024-01-15T12:59:50;1.90;1.00
17619;DHT22;8928;51.678;6.074;2024-01-15T13:02:39;1.90;1.00
17619;DHT22;8928;51.678;6.074;2024-01-15T13:05:28;1.80;1.00
17619;DHT22;8928;51.678;6.074;2024-01-15T13:08:16;1.80;1.00
17619;DHT22;8928;51.678;6.074;2024-01-15T13:11:03;1.80;99.90
17619;DHT22;8928;51.678;6.074;2024-01-15T13:13:50;1.70;99.90
17619;DHT22;8928;51.678;6.074;2024-01-15T13:16:37;1.70;99.90
17619;DHT22;8928;51.678;6.074;2024-01-15T13:19:24;1.60;99.90
17619;DHT22;8928;51.678;6.074;2024-01-15T13:22:13;1.70;99.90
17619;DHT22;8928;51.678;6.074;2024-01-15T13:25:00;1.70;99.90
17619;DHT22;8928;51.678;6.074;2024-01-15T13:27:49;1.90;1.00
17619;DHT22;8928;51.678;6.074;2024-01-15T13:30:37;1.90;1.00
17619;DHT22;8928;51.678;6.074;2024-01-15T13:33:24;1.80;1.00
17619;DHT22;8928;51.678;6.074;2024-01-15T13:36:11;1.80;1.00
17619;DHT22;8928;51.678;6.074;2024-01-15T13:39:00;1.80;1.00
17619;DHT22;8928;51.678;6.074;2024-01-15T13:41:47;1.80;1.00
17619;DHT22;8928;51.678;6.074;2024-01-15T13:44:34;1.60;1.00
17619;DHT22;8928;51.678;6.074;2024-01-15T13:47:21;1.50;1.00
17619;DHT22;8928;51.678;6.074;2024-01-15T13:50:09;1.40;1.00
17619;DHT22;8928;51.678;6.074;2024-01-15T13:52:56;1.50;1.00
17619;DHT22;8928;51.678;6.074;2024-01-15T13:55:44;1.30;1.00
17619;DHT22;8928;51.678;6.074;2024-01-15T13:58:32;1.10;1.00
17619;DHT22;8928;51.678;6.074;2024-01-15T14:01:19;1.00;1.00
17619;DHT22;8928;51.678;6.074;2024-01-15T14:04:06;1.00;1.00
17619;DHT22;8928;51.678;6.074;2024-01-15T14:06:53;0.90;1.00
17619;DHT22;8928;51.678;6.074;2024-01-15T14:09:40;0.80;1.00
17619;DHT22;8928;51.678;6.074;2024-01-15T14:12:29;0.80;1.00
17619;DHT22;8928;51.678;6.074;2024-01-15T14:15:16;0.80;1.00
17619;DHT22;8928;51.678;6.074;2024-01-15T14:18:05;0.80;1.00
17619;DHT22;8928;51.678;6.074;2024-01-15T14:20:52;0.80;99.90
17619;DHT22;8928;51.678;6.074;2024-01-15T14:23:40;0.70;99.90
17619;DHT22;8928;51.678;6.074;2024-01-15T14:26:27;0.70;1.00
17619;DHT22;8928;51.678;6.074;2024-01-15T14:29:15;0.90;1.00
17619;DHT22;8928;51.678;6.074;2024-01-15T14:32:05;1.00;1.00
17619;DHT22;8928;51.678;6.074;2024-01-15T14:34:52;0.90;1.00
17619;DHT22;8928;51.678;6.074;2024-01-15T14:37:39;0.90;1.00
17619;DHT22;8928;51.678;6.074;2024-01-15T14:40:26;0.90;1.00
17619;DHT22;8928;51.678;6.074;2024-01-15T14:43:13;1.00;1.00
17619;DHT22;8928;51.678;6.074;2024-01-15T14:46:01;0.90;1.00
17619;DHT22;8928;51.678;6.074;2024-01-15T14:48:48;0.80;1.00
17619;DHT22;8928;51.678;6.074;2024-01-15T14:51:35;0.70;1.00
17619;DHT22;8928;51.678;6.074;2024-01-15T14:54:23;0.70;1.00
17619;DHT22;8928;51.678;6.074;2024-01-15T14:57:10;0.50;1.00
17619;DHT22;8928;51.678;6.074;2024-01-15T14:59:57;0.40;1.00
17619;DHT22;8928;51.678;6.074;2024-01-15T15:02:45;0.50;1.00
17619;DHT22;8928;51.678;6.074;2024-01-15T15:05:33;0.60;1.00
17619;DHT22;8928;51.678;6.074;2024-01-15T15:08:20;0.60;1.00
17619;DHT22;8928;51.678;6.074;2024-01-15T15:11:07;0.60;1.00
17619;DHT22;8928;51.678;6.074;2024-01-15T15:13:54;0.50;1.00
17619;DHT22;8928;51.678;6.074;2024-01-15T15:16:41;0.40;1.00
17619;DHT22;8928;51.678;6.074;2024-01-15T15:19:29;0.50;1.00
17619;DHT22;8928;51.678;6.074;2024-01-15T15:22:16;0.70;1.00
17619;DHT22;8928;51.678;6.074;2024-01-15T15:25:05;0.70;1.00
17619;DHT22;8928;51.678;6.074;2024-01-15T15:27:54;0.70;1.00
17619;DHT22;8928;51.678;6.074;2024-01-15T15:30:41;0.70;1.00
17619;DHT22;8928;51.678;6.074;2024-01-15T15:33:28;0.60;1.00
17619;DHT22;8928;51.678;6.074;2024-01-15T15:36:16;0.50;1.00
17619;DHT22;8928;51.678;6.074;2024-01-15T15:39:04;0.50;1.00
17619;DHT22;8928;51.678;6.074;2024-01-15T15:41:51;0.50;1.00
17619;DHT22;8928;51.678;6.074;2024-01-15T15:44:39;0.40;1.00
17619;DHT22;8928;51.678;6.074;2024-01-15T15:47:31;0.30;1.00
17619;DHT22;8928;51.678;6.074;2024-01-15T15:50:18;0.40;1.00
17619;DHT22;8928;51.678;6.074;2024-01-15T15:53:07;0.40;1.00
17619;DHT22;8928;51.678;6.074;2024-01-15T15:55:54;0.40;1.00
17619;DHT22;8928;51.678;6.074;2024-01-15T15:58:41;0.30;1.00
17619;DHT22;8928;51.678;6.074;2024-01-15T16:01:28;0.20;1.00
17619;DHT22;8928;51.678;6.074;2024-01-15T16:04:15;0.10;1.00
17619;DHT22;8928;51.678;6.074;2024-01-15T16:07:03;0.00;1.00
17619;DHT22;8928;51.678;6.074;2024-01-15T16:09:55;0.00;1.00
17619;DHT22;8928;51.678;6.074;2024-01-15T16:12:42;0.00;1.00
17619;DHT22;8928;51.678;6.074;2024-01-15T16:15:30;-0.10;1.00
17619;DHT22;8928;51.678;6.074;2024-01-15T16:18:18;-0.10;1.00
17619;DHT22;8928;51.678;6.074;2024-01-15T16:21:05;-0.10;1.00
17619;DHT22;8928;51.678;6.074;2024-01-15T16:23:53;-0.10;1.00
17619;DHT22;8928;51.678;6.074;2024-01-15T16:26:41;-0.20;1.00
17619;DHT22;8928;51.678;6.074;2024-01-15T16:29:28;-0.20;15.90
17619;DHT22;8928;51.678;6.074;2024-01-15T16:32:15;-0.30;34.60
17619;DHT22;8928;51.678;6.074;2024-01-15T16:35:03;-0.20;99.90
17619;DHT22;8928;51.678;6.074;2024-01-15T16:37:51;-0.30;99.90
17619;DHT22;8928;51.678;6.074;2024-01-15T16:40:38;-0.20;99.90
17619;DHT22;8928;51.678;6.074;2024-01-15T16:43:28;0.00;1.00
17619;DHT22;8928;51.678;6.074;2024-01-15T16:46:15;0.10;99.90
17619;DHT22;8928;51.678;6.074;2024-01-15T16:49:02;0.10;99.90
17619;DHT22;8928;51.678;6.074;2024-01-15T16:51:54;0.20;1.00
17619;DHT22;8928;51.678;6.074;2024-01-15T16:54:41;0.20;1.00
17619;DHT22;8928;51.678;6.074;2024-01-15T16:57:28;0.20;1.00
17619;DHT22;8928;51.678;6.074;2024-01-15T17:00:16;0.30;1.00
17619;DHT22;8928;51.678;6.074;2024-01-15T17:03:04;0.40;1.00
17619;DHT22;8928;51.678;6.074;2024-01-15T17:05:51;0.40;99.90
17619;DHT22;8928;51.678;6.074;2024-01-15T17:08:38;0.40;99.90
17619;DHT22;8928;51.678;6.074;2024-01-15T17:11:25;0.30;99.90
17619;DHT22;8928;51.678;6.074;2024-01-15T17:14:12;0.30;99.90
17619;DHT22;8928;51.678;6.074;2024-01-15T17:17:00;0.40;99.90
17619;DHT22;8928;51.678;6.074;2024-01-15T17:19:48;0.50;99.90
17619;DHT22;8928;51.678;6.074;2024-01-15T17:22:36;0.50;10.90
17619;DHT22;8928;51.678;6.074;2024-01-15T17:25:23;0.20;1.00
17619;DHT22;8928;51.678;6.074;2024-01-15T17:28:10;0.20;1.00
17619;DHT22;8928;51.678;6.074;2024-01-15T17:30:57;0.10;99.90
17619;DHT22;8928;51.678;6.074;2024-01-15T17:33:46;0.10;99.90
17619;DHT22;8928;51.678;6.074;2024-01-15T17:36:33;0.10;98.40
17619;DHT22;8928;51.678;6.074;2024-01-15T17:39:20;0.10;1.00
17619;DHT22;8928;51.678;6.074;2024-01-15T17:42:07;0.00;1.00
17619;DHT22;8928;51.678;6.074;2024-01-15T17:44:54;-0.10;1.00
17619;DHT22;8928;51.678;6.074;2024-01-15T17:47:41;-0.30;1.00
17619;DHT22;8928;51.678;6.074;2024-01-15T17:50:29;-0.20;20.00
17619;DHT22;8928;51.678;6.074;2024-01-15T17:53:18;-0.30;58.40
17619;DHT22;8928;51.678;6.074;2024-01-15T17:56:05;-0.30;99.90
17619;DHT22;8928;51.678;6.074;2024-01-15T17:58:52;-0.40;99.90
17619;DHT22;8928;51.678;6.074;2024-01-15T18:01:41;-0.60;99.90
17619;DHT22;8928;51.678;6.074;2024-01-15T18:04:29;-0.60;1.00
17619;DHT22;8928;51.678;6.074;2024-01-15T18:07:17;-0.60;99.90
17619;DHT22;8928;51.678;6.074;2024-01-15T18:10:06;-0.60;99.90
17619;DHT22;8928;51.678;6.074;2024-01-15T18:12:54;-0.60;1.00
17619;DHT22;8928;51.678;6.074;2024-01-15T18:15:41;-0.50;1.00
17619;DHT22;8928;51.678;6.074;2024-01-15T18:18:28;-0.50;99.90
17619;DHT22;8928;51.678;6.074;2024-01-15T18:21:17;-0.40;99.90
17619;DHT22;8928;51.678;6.074;2024-01-15T18:24:06;-0.30;99.90
17619;DHT22;8928;51.678;6.074;2024-01-15T18:26:53;-0.20;99.90